KSPI METAR and TAF | Updated Today

KSPI METAR

Abraham Lincoln Capital Airport

Observation time: 29 min. ago

KSPI 302052Z 28019G27KT 10SM CLR 00/M10 A3027 RMK AO2 PK WND 27027/2052 SLP259 T00001100 53017

Need help? Read our tutorial on how to read METARs or read the parsed version below.

Abraham Lincoln Capital Airport (KSPI) METAR

  • Weather conditions on Wed, 30 Nov 2022 20:52:00 +0000 (29 min. ago):
  • Present conditions: Dry
  • Clouds: Clear skies
  • Visibility: 16093 meters
  • Wind: 280 degrees at 19 knots
  • Temperature: 0 celsius
  • Dew point: -10 celsius
  • Pressure: 30.27 inHg
  • Remarks: AO2 PK WND 27027/2052 SLP259 T00001100 53017


Useful to know...

KSPI TAF

Abraham Lincoln Capital Airport

KSPI 301720Z 3018/0118 28016G25KT P6SM SKC FM302300 28011G19KT P6SM SKC FM010400 27006KT P6SM SCT250
Observation time: 4:01 hr. ago
Need help? Read our tutorial on how to read TAFs or read the parsed version below.

Parsed version of TAF for Abraham Lincoln Capital Airport (KSPI)

  • From 30 November at 18:00 UTC, to day 01 of the month at 18:00 UTC
  • Clouds: No significant changes expected
  • Wind: 280 degrees at 16
  • From day 30 of the month at 23:00 UTC
  • Clouds: No significant changes expected
  • Wind: 280 degrees at 11
  • From day 1 of the month at 04:00 UTC
  • Clouds: Scattered at 7620 meters
  • Wind: 270 degrees at 6